N5NC KDEN-KEGE
Flight info
| Callsign | N5NC |
|---|---|
| Flight time | 0h 32m |
| Altitude | 18000 |
| Route | ZIMMR4 ZIMMR CULCH |
| Aircraft | C525/L-SDFGRWYZ/LB1 |
Departure
| Time | 2026-04-22 18:21 |
|---|---|
| Airport | Denver International Airport (KDEN) |
Arrival
| Time | 2026-04-22 18:53 |
|---|---|
| Airport | Eagle County Regional Airport (KEGE) |
| Time | Latitude | Longitude | Altitude | Speed | Heading |
|---|---|---|---|---|---|
| 2026-04-22 17:58 | 39.83925 | -104.66522 | 5410 ft | 0 kts | 181° |
| 2026-04-22 18:11 | 39.83916 | -104.66510 | 5410 ft | 3 kts | 105° |
| 2026-04-22 18:12 | 39.83908 | -104.66449 | 5410 ft | 9 kts | 81° |
| 2026-04-22 18:12 | 39.83951 | -104.66393 | 5414 ft | 8 kts | 27° |
| 2026-04-22 18:12 | 39.83976 | -104.66379 | 5415 ft | 0 kts | 22° |
| 2026-04-22 18:12 | 39.83978 | -104.66378 | 5415 ft | 0 kts | 22° |
| 2026-04-22 18:13 | 39.83983 | -104.66375 | 5416 ft | 1 kts | 24° |
| 2026-04-22 18:13 | 39.84001 | -104.66363 | 5417 ft | 1 kts | 36° |
| 2026-04-22 18:13 | 39.84008 | -104.66354 | 5417 ft | 0 kts | 45° |
| 2026-04-22 18:13 | 39.84009 | -104.66354 | 5417 ft | 0 kts | 47° |
| 2026-04-22 18:14 | 39.84016 | -104.66338 | 5417 ft | 4 kts | 66° |
| 2026-04-22 18:15 | 39.84039 | -104.66265 | 5419 ft | 16 kts | 33° |
| 2026-04-22 18:15 | 39.84212 | -104.66253 | 5415 ft | 33 kts | 1° |
| 2026-04-22 18:15 | 39.84484 | -104.66250 | 5409 ft | 41 kts | 0° |
| 2026-04-22 18:15 | 39.84761 | -104.66247 | 5404 ft | 39 kts | 0° |
| 2026-04-22 18:16 | 39.85031 | -104.66243 | 5403 ft | 37 kts | 0° |
| 2026-04-22 18:16 | 39.85290 | -104.66240 | 5396 ft | 36 kts | 360° |
| 2026-04-22 18:16 | 39.85537 | -104.66237 | 5393 ft | 35 kts | 0° |
| 2026-04-22 18:16 | 39.85770 | -104.66235 | 5391 ft | 33 kts | 0° |
| 2026-04-22 18:17 | 39.86000 | -104.66232 | 5382 ft | 29 kts | 358° |
| 2026-04-22 18:17 | 39.86104 | -104.66173 | 5384 ft | 12 kts | 88° |
| 2026-04-22 18:17 | 39.86104 | -104.66147 | 5384 ft | 0 kts | 93° |
| 2026-04-22 18:17 | 39.86104 | -104.66142 | 5384 ft | 2 kts | 93° |
| 2026-04-22 18:18 | 39.86102 | -104.66058 | 5387 ft | 15 kts | 91° |
| 2026-04-22 18:18 | 39.86066 | -104.66016 | 5387 ft | 0 kts | 182° |
| 2026-04-22 18:20 | 39.86063 | -104.66016 | 5387 ft | 4 kts | 182° |
| 2026-04-22 18:20 | 39.85857 | -104.66021 | 5389 ft | 55 kts | 180° |
| 2026-04-22 18:20 | 39.85323 | -104.66026 | 5401 ft | 97 kts | 180° |
| 2026-04-22 18:21 | 39.84572 | -104.66034 | 5602 ft | 110 kts | 183° |
| 2026-04-22 18:21 | 39.83796 | -104.66079 | 5941 ft | 113 kts | 182° |
| 2026-04-22 18:21 | 39.82958 | -104.66127 | 6235 ft | 125 kts | 184° |
| 2026-04-22 18:21 | 39.82050 | -104.66278 | 6505 ft | 139 kts | 202° |
| 2026-04-22 18:22 | 39.81399 | -104.67270 | 6787 ft | 162 kts | 251° |
| 2026-04-22 18:22 | 39.81614 | -104.68767 | 7171 ft | 183 kts | 293° |
| 2026-04-22 18:22 | 39.82376 | -104.70144 | 7564 ft | 194 kts | 303° |
| 2026-04-22 18:22 | 39.83232 | -104.71502 | 8016 ft | 198 kts | 304° |
| 2026-04-22 18:23 | 39.84092 | -104.72902 | 8495 ft | 200 kts | 303° |
| 2026-04-22 18:23 | 39.84937 | -104.74346 | 8974 ft | 202 kts | 301° |
| 2026-04-22 18:23 | 39.85766 | -104.75828 | 9453 ft | 203 kts | 301° |
| 2026-04-22 18:24 | 39.87374 | -104.78838 | 10390 ft | 205 kts | 300° |
| 2026-04-22 18:24 | 39.88171 | -104.80380 | 10851 ft | 206 kts | 300° |
| 2026-04-22 18:24 | 39.89762 | -104.83522 | 11632 ft | 214 kts | 298° |
| 2026-04-22 18:25 | 39.90588 | -104.85175 | 11989 ft | 219 kts | 298° |
| 2026-04-22 18:25 | 39.91417 | -104.86844 | 12345 ft | 224 kts | 299° |
| 2026-04-22 18:25 | 39.92271 | -104.88570 | 12701 ft | 228 kts | 298° |
| 2026-04-22 18:26 | 39.93255 | -104.92411 | 13410 ft | 230 kts | 272° |
| 2026-04-22 18:26 | 39.93341 | -104.94510 | 13784 ft | 233 kts | 269° |
| 2026-04-22 18:26 | 39.93389 | -104.96617 | 14141 ft | 237 kts | 269° |
| 2026-04-22 18:26 | 39.93433 | -104.98777 | 14515 ft | 240 kts | 269° |
| 2026-04-22 18:27 | 39.93476 | -105.00940 | 14882 ft | 242 kts | 269° |
| 2026-04-22 18:27 | 39.93521 | -105.03134 | 15315 ft | 242 kts | 268° |
| 2026-04-22 18:27 | 39.93568 | -105.05321 | 15768 ft | 240 kts | 268° |
| 2026-04-22 18:27 | 39.93614 | -105.07462 | 16203 ft | 239 kts | 268° |
| 2026-04-22 18:28 | 39.93661 | -105.09625 | 16657 ft | 238 kts | 268° |
| 2026-04-22 18:28 | 39.93708 | -105.11772 | 17081 ft | 238 kts | 267° |
| 2026-04-22 18:28 | 39.93753 | -105.13934 | 17335 ft | 244 kts | 267° |
| 2026-04-22 18:28 | 39.93800 | -105.16174 | 17599 ft | 249 kts | 268° |
| 2026-04-22 18:29 | 39.93847 | -105.18420 | 17833 ft | 254 kts | 268° |
| 2026-04-22 18:29 | 39.93895 | -105.20799 | 17897 ft | 266 kts | 267° |
| 2026-04-22 18:29 | 39.93964 | -105.23266 | 17903 ft | 278 kts | 270° |
| 2026-04-22 18:29 | 39.94146 | -105.25813 | 17923 ft | 288 kts | 271° |
| 2026-04-22 18:30 | 39.94363 | -105.28471 | 17926 ft | 297 kts | 272° |
| 2026-04-22 18:30 | 39.94811 | -105.33894 | 17939 ft | 300 kts | 272° |
| 2026-04-22 18:30 | 39.95029 | -105.36524 | 17935 ft | 288 kts | 272° |
| 2026-04-22 18:31 | 39.95239 | -105.39105 | 17953 ft | 284 kts | 272° |
| 2026-04-22 18:31 | 39.95444 | -105.41662 | 17978 ft | 284 kts | 271° |
| 2026-04-22 18:31 | 39.95649 | -105.44242 | 18017 ft | 290 kts | 271° |
| 2026-04-22 18:31 | 39.95857 | -105.46895 | 18062 ft | 296 kts | 272° |
| 2026-04-22 18:32 | 39.96066 | -105.49561 | 18094 ft | 302 kts | 271° |
| 2026-04-22 18:32 | 39.96280 | -105.52303 | 18105 ft | 307 kts | 271° |
| 2026-04-22 18:32 | 39.96498 | -105.55109 | 18115 ft | 310 kts | 271° |
| 2026-04-22 18:32 | 39.96713 | -105.57882 | 18125 ft | 310 kts | 272° |
| 2026-04-22 18:33 | 39.96927 | -105.60661 | 18132 ft | 310 kts | 271° |
| 2026-04-22 18:33 | 39.97141 | -105.63468 | 18138 ft | 310 kts | 271° |
| 2026-04-22 18:33 | 39.97353 | -105.66251 | 18145 ft | 310 kts | 271° |
| 2026-04-22 18:33 | 39.97532 | -105.69080 | 18144 ft | 308 kts | 270° |
| 2026-04-22 18:34 | 39.97686 | -105.71839 | 18131 ft | 306 kts | 269° |
| 2026-04-22 18:34 | 39.97837 | -105.74594 | 18119 ft | 304 kts | 269° |
| 2026-04-22 18:34 | 39.97986 | -105.77338 | 18113 ft | 303 kts | 269° |
| 2026-04-22 18:34 | 39.98135 | -105.80074 | 18128 ft | 301 kts | 269° |
| 2026-04-22 18:35 | 39.98281 | -105.82768 | 18130 ft | 299 kts | 270° |
| 2026-04-22 18:35 | 39.98428 | -105.85486 | 18121 ft | 299 kts | 269° |
| 2026-04-22 18:35 | 39.98574 | -105.88165 | 18125 ft | 298 kts | 269° |
| 2026-04-22 18:35 | 39.98719 | -105.90861 | 18128 ft | 298 kts | 268° |
| 2026-04-22 18:36 | 39.98863 | -105.93537 | 18131 ft | 297 kts | 268° |
| 2026-04-22 18:36 | 39.99007 | -105.96226 | 18133 ft | 297 kts | 268° |
| 2026-04-22 18:36 | 39.99149 | -105.98882 | 18137 ft | 296 kts | 269° |
| 2026-04-22 18:36 | 39.99293 | -106.01563 | 18136 ft | 297 kts | 269° |
| 2026-04-22 18:37 | 39.99436 | -106.04256 | 18129 ft | 297 kts | 269° |
| 2026-04-22 18:37 | 39.99576 | -106.06904 | 18123 ft | 296 kts | 268° |
| 2026-04-22 18:37 | 39.99717 | -106.09575 | 18126 ft | 296 kts | 269° |
| 2026-04-22 18:37 | 39.99858 | -106.12252 | 18121 ft | 295 kts | 269° |
| 2026-04-22 18:38 | 39.99998 | -106.14933 | 18120 ft | 295 kts | 269° |
| 2026-04-22 18:38 | 40.00135 | -106.17567 | 18125 ft | 294 kts | 269° |
| 2026-04-22 18:38 | 40.00274 | -106.20224 | 18141 ft | 293 kts | 269° |
| 2026-04-22 18:39 | 40.00547 | -106.25515 | 18147 ft | 292 kts | 268° |
| 2026-04-22 18:39 | 40.00682 | -106.28171 | 18151 ft | 291 kts | 268° |
| 2026-04-22 18:39 | 40.00815 | -106.30780 | 18149 ft | 291 kts | 268° |
| 2026-04-22 18:39 | 40.00950 | -106.33412 | 18164 ft | 290 kts | 268° |
| 2026-04-22 18:40 | 40.01082 | -106.36040 | 18170 ft | 289 kts | 268° |
| 2026-04-22 18:40 | 40.01212 | -106.38638 | 18165 ft | 290 kts | 268° |
| 2026-04-22 18:40 | 40.01241 | -106.41251 | 18128 ft | 285 kts | 257° |
| 2026-04-22 18:40 | 40.00452 | -106.43544 | 17963 ft | 278 kts | 232° |
| 2026-04-22 18:41 | 39.99121 | -106.45316 | 17798 ft | 270 kts | 223° |
| 2026-04-22 18:41 | 39.97736 | -106.46854 | 17613 ft | 251 kts | 221° |
| 2026-04-22 18:41 | 39.96456 | -106.48190 | 17336 ft | 219 kts | 220° |
| 2026-04-22 18:41 | 39.95326 | -106.49347 | 17047 ft | 197 kts | 220° |
| 2026-04-22 18:42 | 39.94336 | -106.50352 | 16772 ft | 183 kts | 220° |
| 2026-04-22 18:42 | 39.93351 | -106.51348 | 16504 ft | 176 kts | 220° |
| 2026-04-22 18:42 | 39.92400 | -106.52304 | 16229 ft | 172 kts | 220° |
| 2026-04-22 18:42 | 39.91455 | -106.53253 | 15948 ft | 169 kts | 220° |
| 2026-04-22 18:43 | 39.90532 | -106.54174 | 15707 ft | 167 kts | 221° |
| 2026-04-22 18:43 | 39.89610 | -106.55090 | 15471 ft | 167 kts | 220° |
| 2026-04-22 18:43 | 39.88676 | -106.56018 | 15306 ft | 171 kts | 220° |
| 2026-04-22 18:43 | 39.87721 | -106.56963 | 15092 ft | 173 kts | 220° |
| 2026-04-22 18:44 | 39.86765 | -106.57909 | 14863 ft | 175 kts | 220° |
| 2026-04-22 18:44 | 39.85796 | -106.58865 | 14638 ft | 176 kts | 220° |
| 2026-04-22 18:44 | 39.84815 | -106.59830 | 14399 ft | 176 kts | 219° |
| 2026-04-22 18:44 | 39.83835 | -106.60794 | 14161 ft | 177 kts | 220° |
| 2026-04-22 18:45 | 39.82802 | -106.61646 | 13910 ft | 180 kts | 206° |
| 2026-04-22 18:45 | 39.81571 | -106.62029 | 13676 ft | 183 kts | 197° |
| 2026-04-22 18:45 | 39.80310 | -106.62257 | 13429 ft | 183 kts | 194° |
| 2026-04-22 18:45 | 39.79045 | -106.62450 | 13202 ft | 183 kts | 193° |
| 2026-04-22 18:46 | 39.77777 | -106.62640 | 12969 ft | 183 kts | 194° |
| 2026-04-22 18:46 | 39.76529 | -106.62828 | 12740 ft | 182 kts | 194° |
| 2026-04-22 18:46 | 39.75277 | -106.63020 | 12526 ft | 180 kts | 194° |
| 2026-04-22 18:46 | 39.74027 | -106.63214 | 12303 ft | 180 kts | 194° |
| 2026-04-22 18:47 | 39.72792 | -106.63409 | 12097 ft | 180 kts | 194° |
| 2026-04-22 18:47 | 39.71555 | -106.63662 | 11909 ft | 174 kts | 204° |
| 2026-04-22 18:47 | 39.70602 | -106.64489 | 11845 ft | 162 kts | 228° |
| 2026-04-22 18:47 | 39.70002 | -106.65674 | 11852 ft | 155 kts | 241° |
| 2026-04-22 18:48 | 39.69591 | -106.66998 | 11694 ft | 162 kts | 248° |
| 2026-04-22 18:48 | 39.69258 | -106.68400 | 11577 ft | 163 kts | 249° |
| 2026-04-22 18:48 | 39.68911 | -106.69791 | 11497 ft | 163 kts | 247° |
| 2026-04-22 18:48 | 39.68568 | -106.71208 | 11344 ft | 164 kts | 249° |
| 2026-04-22 18:49 | 39.68254 | -106.72626 | 11162 ft | 165 kts | 251° |
| 2026-04-22 18:49 | 39.67964 | -106.74084 | 10984 ft | 167 kts | 250° |
| 2026-04-22 18:49 | 39.67656 | -106.75524 | 10806 ft | 167 kts | 251° |
| 2026-04-22 18:49 | 39.67350 | -106.76961 | 10439 ft | 162 kts | 250° |
| 2026-04-22 18:50 | 39.67031 | -106.78339 | 10020 ft | 160 kts | 249° |
| 2026-04-22 18:50 | 39.66653 | -106.79684 | 9618 ft | 157 kts | 245° |
| 2026-04-22 18:50 | 39.66278 | -106.80894 | 9334 ft | 136 kts | 244° |
| 2026-04-22 18:50 | 39.65942 | -106.81975 | 9009 ft | 122 kts | 247° |
| 2026-04-22 18:51 | 39.65684 | -106.82997 | 8648 ft | 120 kts | 248° |
| 2026-04-22 18:51 | 39.65473 | -106.84006 | 8348 ft | 115 kts | 249° |
| 2026-04-22 18:51 | 39.65221 | -106.84975 | 8048 ft | 113 kts | 246° |
| 2026-04-22 18:51 | 39.64982 | -106.85931 | 7750 ft | 115 kts | 251° |
| 2026-04-22 18:52 | 39.64809 | -106.86946 | 7419 ft | 114 kts | 250° |
| 2026-04-22 18:52 | 39.64675 | -106.87946 | 7148 ft | 112 kts | 258° |
| 2026-04-22 18:52 | 39.64572 | -106.88929 | 6917 ft | 108 kts | 256° |
| 2026-04-22 18:52 | 39.64464 | -106.89879 | 6704 ft | 105 kts | 256° |
| 2026-04-22 18:53 | 39.64367 | -106.90797 | 6595 ft | 95 kts | 257° |
| 2026-04-22 18:53 | 39.64284 | -106.91531 | 6591 ft | 69 kts | 260° |
| 2026-04-22 18:53 | 39.64226 | -106.92064 | 6591 ft | 53 kts | 261° |
| 2026-04-22 18:53 | 39.64157 | -106.92279 | 6591 ft | 19 kts | 182° |
| 2026-04-22 18:54 | 39.64102 | -106.92186 | 6591 ft | 16 kts | 82° |
| 2026-04-22 18:54 | 39.64120 | -106.92020 | 6591 ft | 21 kts | 81° |
| 2026-04-22 18:54 | 39.64143 | -106.91811 | 6591 ft | 25 kts | 82° |
| 2026-04-22 18:54 | 39.64169 | -106.91574 | 6591 ft | 28 kts | 82° |
| 2026-04-22 18:55 | 39.64198 | -106.91312 | 6591 ft | 30 kts | 82° |
| 2026-04-22 18:55 | 39.64228 | -106.91032 | 6592 ft | 31 kts | 82° |
| 2026-04-22 18:55 | 39.64141 | -106.90915 | 6592 ft | 19 kts | 179° |
| 2026-04-22 18:55 | 39.64096 | -106.90907 | 6592 ft | 0 kts | 2° |